Record high temperature 100.4°F Record low temperature 10.6°F Record high gust 40 mph Record high average 22.8 mph Record daily rain 11.65 in. Record low windchill 2.7°F Record high barometer 30.773 in. Record low barometer 29.184 in.
Daily high pressure 29.929 in. Daily low pressure 29.828 in. Daily low windchill 53.3°F Daily high heat index 77.5°F Daily high gust speed 9.0 mph SSW Daily high average speed 4.0 mph SSW
Forecast: increasing clouds with little temp. change.
On the Greenway Weather Data - Tigard OR
LAST READING AT TIME: 10:29 PM DATE: September 16 2014, time of next update: 10:30 pm
Current WeatherNight time/Dry Current Temperature 66.1°F (18.9°C) (Heat Index 66.1°F ), Apparent temp 68.4°F
Maximum Temperature (since midnight)77.5°F at: 4:35 PM Minimum Temperature (since midnight)53.3°F at: 7:13 AM
Average windspeed (ten minute)0.0 mph Wind Direction (ten minute)NW (315°)
Heat Index 66.1°F Maximum Gust (last hour) 0 mph at: 10:00 PM
Maximum Gust (since midnight) 9 mph at: 2:44 AM Maximum 1 minute average (since midnight)4.0 mph at: 12:25 PM
Rainfall (last hour)0.00 in. (0.0 mm) Rainfall (since midnight)0.00 in. (0.0 mm) ---
Rainfall This month 0.00 in. (0.0 mm) Rainfall To date this year 30.80 in. (782.2 mm)
Maximum rain per minute (last hour)0.00 in/min Maximum rain per hour (last 6 hours)0.00 in/hour
Yesterdays rainfall 0.00 in DewPoint 57.2°F (Wet Bulb :60.9°F )
Humidity 73 %, Humidex 72.2°F Barometer corrected to msl29.841 in. (1010.5 hPa)
Pressure change -0.01 in. (last hour) Trend (last hour)STEADY
Pressure change (last 12 hours)-0.09 in Pressure change (last 6 hours)-0.03 in

This page is updated from recent data collected by a DAVIS VANTAGE PRO weather station Use the Reload or Refresh facility on your browser to retrieve the latest data.


Click here for the last 24 hour graph
Click here for the last 48 hour graph
Click here for the last 72 hour graph
Click here for the month to date graph


Weather report/Warning/Metars

PORTLAND-HILLSBORO AIRPORT, OR, United States (KHIO) 45-33N 122-57W 68M
Sep 17, 2014 - 12:53 AM EDT / 2014.09.17 0453 UTC
Wind: Calm:0
Visibility: 10 mile(s):0
Sky conditions: mostly clear
Temperature: 64.0 F (17.8 C)
Dew Point: 55.0 F (12.8 C)
Relative Humidity: 72%
Pressure (altimeter): 29.85 in. Hg (1010 hPa)
ob: KHIO 170453Z 00000KT 10SM FEW090 FEW110 18/13 A2985 RMK AO2 SLP107 T01780128
cycle: 5
PORTLAND INTERNATIONAL  AIRPORT, OR, United States (KPDX) 45-35N 122-36W 7M
Sep 16, 2014 - 11:53 PM EDT / 2014.09.17 0353 UTC
Wind: from the NW (310 degrees) at 7 MPH (6 KT):0
Visibility: 10 mile(s):0
Sky conditions: mostly cloudy
Temperature: 68.0 F (20.0 C)
Dew Point: 55.9 F (13.3 C)
Relative Humidity: 65%
Pressure (altimeter): 29.87 in. Hg (1011 hPa)
ob: KPDX 170353Z 31006KT 10SM SCT100 BKN170 BKN250 20/13 A2987 RMK AO2 SLP113 T02000133
cycle: 4
PORTLAND-TROUTDALE AIRPORT, OR, United States (KTTD) 45-33N 122-25W 14M
Sep 17, 2014 - 12:53 AM EDT / 2014.09.17 0453 UTC
Wind: Calm:0
Visibility: 10 mile(s):0
Sky conditions: clear
Temperature: 64.0 F (17.8 C)
Dew Point: 55.0 F (12.8 C)
Relative Humidity: 72%
Pressure (altimeter): 29.84 in. Hg (1010 hPa)
ob: KTTD 170453Z 00000KT 10SM CLR 18/13 A2984 RMK AO2 SLP106 T01780128
cycle: 5
MCMINNVILLE MUNICIPAL AIRPORT , OR, United States (KMMV) 45-12N 123-08W 48M
Sep 17, 2014 - 12:53 AM EDT / 2014.09.17 0453 UTC
Wind: from the W (280 degrees) at 5 MPH (4 KT):0
Visibility: 10 mile(s):0
Sky conditions: clear
Precipitation last hour: A trace
Temperature: 64.0 F (17.8 C)
Dew Point: 55.0 F (12.8 C)
Relative Humidity: 72%
Pressure (altimeter): 29.85 in. Hg (1010 hPa)
ob: KMMV 170453Z AUTO 28004KT 10SM CLR 18/13 A2985 RMK AO2 RAB01E12 SLP106 P0000 T01780128
cycle: 5
SALEM MCNARY FIELD, OR, United States (KSLE) 44-54N 123-00W 59M
Sep 17, 2014 - 12:56 AM EDT / 2014.09.17 0456 UTC
Wind: from the NW (310 degrees) at 8 MPH (7 KT):0
Visibility: 10 mile(s):0
Sky conditions: clear
Temperature: 68.0 F (20.0 C)
Dew Point: 54.0 F (12.2 C)
Relative Humidity: 60%
Pressure (altimeter): 29.83 in. Hg (1010 hPa)
ob: KSLE 170456Z AUTO 31007KT 10SM CLR 20/12 A2983 RMK AO2 SLP100 T02000122
cycle: 5


Sunset at:
7:22 pm

Moonrise at:
11:55 pm 09/15/14

Moonset at:
2:52 pm 09/16/14

First Quarter  2 September 2014
Full moon  9 September 2014
Last Quarter16 September 2014
New moon 24 September 2014
Moon age: 22 days,8 hours,16 minutes,48%
Hours of possible daylight today was 12:32



Use the RELOAD facility on your browser to retrieve the latest data.

Click here for current Fire weather info
Click here for the daily CLIMATOLOGICAL SUMMARY
Click here for a daily update of the averages/extremes to date for the month




Created by "Weather Display" software version 10.37R Build 81 at this start time/date 5:19 pm 9/1/2014




On The Greenway Weather Web Site

 
 
HELP US OUT
Help us keep this weather station on the web. for the Tigard / Portland internet users to use. If you would like to help, click the donate button below
 
This site is purely funded by donations and by myself (Ray Cooper)
Anything you can do will help keep this station on the net
Average cost per year is $665 to publish and host this site excluding the cost of the weather equipment
Buyastrostuff.com is kind enough to host our DNS and email at no cost.
THANKS GUYS & Gals for helping
Have a Question,or just want to talk. Contact me at:
Ray Cooper @ Buyastrostuff.com